sensor_id;sensor_type;location;lat;lon;timestamp;temperature;humidity
3186;DHT22;1604;53.700;10.252;2024-02-21T00:02:47;8.60;99.90
3186;DHT22;1604;53.700;10.252;2024-02-21T00:05:49;8.60;99.90
3186;DHT22;1604;53.700;10.252;2024-02-21T00:08:51;8.60;99.90
3186;DHT22;1604;53.700;10.252;2024-02-21T00:11:53;8.60;99.90
3186;DHT22;1604;53.700;10.252;2024-02-21T00:14:55;8.70;99.90
3186;DHT22;1604;53.700;10.252;2024-02-21T00:17:58;8.70;99.90
3186;DHT22;1604;53.700;10.252;2024-02-21T00:21:00;8.70;99.90
3186;DHT22;1604;53.700;10.252;2024-02-21T00:24:04;8.70;99.90
3186;DHT22;1604;53.700;10.252;2024-02-21T00:27:06;8.80;99.90
3186;DHT22;1604;53.700;10.252;2024-02-21T00:30:09;8.80;99.90
3186;DHT22;1604;53.700;10.252;2024-02-21T00:33:12;8.80;99.90
3186;DHT22;1604;53.700;10.252;2024-02-21T00:36:14;8.80;99.90
3186;DHT22;1604;53.700;10.252;2024-02-21T00:39:16;8.80;99.90
3186;DHT22;1604;53.700;10.252;2024-02-21T00:42:18;8.80;99.90
3186;DHT22;1604;53.700;10.252;2024-02-21T00:45:20;8.80;99.90
3186;DHT22;1604;53.700;10.252;2024-02-21T00:48:23;8.80;99.90
3186;DHT22;1604;53.700;10.252;2024-02-21T00:51:25;8.80;99.90
3186;DHT22;1604;53.700;10.252;2024-02-21T00:54:27;8.80;99.90
3186;DHT22;1604;53.700;10.252;2024-02-21T00:57:29;8.80;99.90
3186;DHT22;1604;53.700;10.252;2024-02-21T01:00:32;8.80;99.90
3186;DHT22;1604;53.700;10.252;2024-02-21T01:03:35;8.80;99.80
3186;DHT22;1604;53.700;10.252;2024-02-21T01:06:37;8.80;99.80
3186;DHT22;1604;53.700;10.252;2024-02-21T01:09:39;8.70;99.60
3186;DHT22;1604;53.700;10.252;2024-02-21T01:12:41;8.70;99.60
3186;DHT22;1604;53.700;10.252;2024-02-21T01:15:43;8.70;99.50
3186;DHT22;1604;53.700;10.252;2024-02-21T01:18:46;8.80;99.50
3186;DHT22;1604;53.700;10.252;2024-02-21T01:21:48;8.80;99.30
3186;DHT22;1604;53.700;10.252;2024-02-21T01:24:50;8.70;99.00
3186;DHT22;1604;53.700;10.252;2024-02-21T01:27:52;8.70;98.90
3186;DHT22;1604;53.700;10.252;2024-02-21T01:30:54;8.70;98.80
3186;DHT22;1604;53.700;10.252;2024-02-21T01:33:57;8.70;98.70
3186;DHT22;1604;53.700;10.252;2024-02-21T01:36:59;8.70;98.60
3186;DHT22;1604;53.700;10.252;2024-02-21T01:40:05;8.70;98.70
3186;DHT22;1604;53.700;10.252;2024-02-21T01:43:16;8.70;98.60
3186;DHT22;1604;53.700;10.252;2024-02-21T01:46:18;8.80;98.70
3186;DHT22;1604;53.700;10.252;2024-02-21T01:49:22;8.70;98.40
3186;DHT22;1604;53.700;10.252;2024-02-21T01:52:24;8.70;98.20
3186;DHT22;1604;53.700;10.252;2024-02-21T01:55:26;8.70;97.90
3186;DHT22;1604;53.700;10.252;2024-02-21T01:58:29;8.70;97.70
3186;DHT22;1604;53.700;10.252;2024-02-21T02:01:31;8.70;97.60
3186;DHT22;1604;53.700;10.252;2024-02-21T02:04:37;8.70;97.40
3186;DHT22;1604;53.700;10.252;2024-02-21T02:07:40;8.60;97.20
3186;DHT22;1604;53.700;10.252;2024-02-21T02:10:42;8.60;97.10
3186;DHT22;1604;53.700;10.252;2024-02-21T02:13:44;8.60;97.00
3186;DHT22;1604;53.700;10.252;2024-02-21T02:16:47;8.60;96.80
3186;DHT22;1604;53.700;10.252;2024-02-21T02:19:50;8.60;96.80
3186;DHT22;1604;53.700;10.252;2024-02-21T02:22:52;8.60;96.80
3186;DHT22;1604;53.700;10.252;2024-02-21T02:25:56;8.60;96.80
3186;DHT22;1604;53.700;10.252;2024-02-21T02:28:58;8.60;96.80
3186;DHT22;1604;53.700;10.252;2024-02-21T02:32:00;8.60;96.80
3186;DHT22;1604;53.700;10.252;2024-02-21T02:35:02;8.60;96.70
3186;DHT22;1604;53.700;10.252;2024-02-21T02:38:04;8.60;96.80
3186;DHT22;1604;53.700;10.252;2024-02-21T02:41:07;8.60;96.70
3186;DHT22;1604;53.700;10.252;2024-02-21T02:44:09;8.60;96.60
3186;DHT22;1604;53.700;10.252;2024-02-21T02:47:11;8.60;96.70
3186;DHT22;1604;53.700;10.252;2024-02-21T02:50:13;8.60;96.60
3186;DHT22;1604;53.700;10.252;2024-02-21T02:53:15;8.60;96.60
3186;DHT22;1604;53.700;10.252;2024-02-21T02:56:20;8.50;96.50
3186;DHT22;1604;53.700;10.252;2024-02-21T02:59:22;8.60;96.60
3186;DHT22;1604;53.700;10.252;2024-02-21T03:02:24;8.60;96.70
3186;DHT22;1604;53.700;10.252;2024-02-21T03:05:26;8.60;96.60
3186;DHT22;1604;53.700;10.252;2024-02-21T03:08:28;8.60;96.70
3186;DHT22;1604;53.700;10.252;2024-02-21T03:11:32;8.60;96.80
3186;DHT22;1604;53.700;10.252;2024-02-21T03:14:33;8.70;96.70
3186;DHT22;1604;53.700;10.252;2024-02-21T03:17:35;8.60;96.90
3186;DHT22;1604;53.700;10.252;2024-02-21T03:20:37;8.70;96.90
3186;DHT22;1604;53.700;10.252;2024-02-21T03:23:39;8.70;97.10
3186;DHT22;1604;53.700;10.252;2024-02-21T03:26:43;8.70;97.10
3186;DHT22;1604;53.700;10.252;2024-02-21T03:29:45;8.70;97.20
3186;DHT22;1604;53.700;10.252;2024-02-21T03:32:47;8.70;97.50
3186;DHT22;1604;53.700;10.252;2024-02-21T03:35:48;8.80;97.70
3186;DHT22;1604;53.700;10.252;2024-02-21T03:38:50;8.90;97.90
3186;DHT22;1604;53.700;10.252;2024-02-21T03:41:54;8.90;98.00
3186;DHT22;1604;53.700;10.252;2024-02-21T03:44:55;8.80;97.80
3186;DHT22;1604;53.700;10.252;2024-02-21T03:48:01;8.80;97.80
3186;DHT22;1604;53.700;10.252;2024-02-21T03:51:03;8.90;98.00
3186;DHT22;1604;53.700;10.252;2024-02-21T03:54:05;8.80;97.80
3186;DHT22;1604;53.700;10.252;2024-02-21T03:57:08;8.80;97.60
3186;DHT22;1604;53.700;10.252;2024-02-21T04:00:11;8.80;97.40
3186;DHT22;1604;53.700;10.252;2024-02-21T04:03:13;8.80;97.40
3186;DHT22;1604;53.700;10.252;2024-02-21T04:06:15;8.70;97.20
3186;DHT22;1604;53.700;10.252;2024-02-21T04:09:17;8.70;97.10
3186;DHT22;1604;53.700;10.252;2024-02-21T04:12:20;8.80;96.90
3186;DHT22;1604;53.700;10.252;2024-02-21T04:15:22;8.80;97.10
3186;DHT22;1604;53.700;10.252;2024-02-21T04:18:24;8.80;97.10
3186;DHT22;1604;53.700;10.252;2024-02-21T04:21:26;8.80;97.20
3186;DHT22;1604;53.700;10.252;2024-02-21T04:24:28;8.80;97.20
3186;DHT22;1604;53.700;10.252;2024-02-21T04:27:31;8.70;97.20
3186;DHT22;1604;53.700;10.252;2024-02-21T04:30:34;8.80;97.10
3186;DHT22;1604;53.700;10.252;2024-02-21T04:33:36;8.80;97.10
3186;DHT22;1604;53.700;10.252;2024-02-21T04:36:38;8.70;97.10
3186;DHT22;1604;53.700;10.252;2024-02-21T04:39:40;8.70;97.00
3186;DHT22;1604;53.700;10.252;2024-02-21T04:42:43;8.70;96.90
3186;DHT22;1604;53.700;10.252;2024-02-21T04:45:48;8.70;96.90
3186;DHT22;1604;53.700;10.252;2024-02-21T04:48:51;8.70;96.70
3186;DHT22;1604;53.700;10.252;2024-02-21T04:51:53;8.80;96.80
3186;DHT22;1604;53.700;10.252;2024-02-21T04:54:55;8.70;96.70
3186;DHT22;1604;53.700;10.252;2024-02-21T04:57:58;8.70;96.60
3186;DHT22;1604;53.700;10.252;2024-02-21T05:01:03;8.70;96.60
3186;DHT22;1604;53.700;10.252;2024-02-21T05:04:05;8.70;96.50
3186;DHT22;1604;53.700;10.252;2024-02-21T05:07:07;8.70;96.40
3186;DHT22;1604;53.700;10.252;2024-02-21T05:10:09;8.70;96.30
3186;DHT22;1604;53.700;10.252;2024-02-21T05:13:13;8.70;96.40
3186;DHT22;1604;53.700;10.252;2024-02-21T05:16:16;8.60;96.20
3186;DHT22;1604;53.700;10.252;2024-02-21T05:19:19;8.60;96.20
3186;DHT22;1604;53.700;10.252;2024-02-21T05:22:22;8.70;96.20
3186;DHT22;1604;53.700;10.252;2024-02-21T05:25:23;8.70;96.20
3186;DHT22;1604;53.700;10.252;2024-02-21T05:28:27;8.60;96.10
3186;DHT22;1604;53.700;10.252;2024-02-21T05:31:54;8.60;96.10
3186;DHT22;1604;53.700;10.252;2024-02-21T05:34:56;8.60;96.10
3186;DHT22;1604;53.700;10.252;2024-02-21T05:38:05;8.60;96.10
3186;DHT22;1604;53.700;10.252;2024-02-21T05:41:12;8.60;96.10
3186;DHT22;1604;53.700;10.252;2024-02-21T05:44:15;8.60;96.10
3186;DHT22;1604;53.700;10.252;2024-02-21T05:47:17;8.60;96.00
3186;DHT22;1604;53.700;10.252;2024-02-21T05:50:21;8.60;96.00
3186;DHT22;1604;53.700;10.252;2024-02-21T05:53:24;8.60;96.10
3186;DHT22;1604;53.700;10.252;2024-02-21T05:56:26;8.60;96.00
3186;DHT22;1604;53.700;10.252;2024-02-21T05:59:33;8.60;96.00
3186;DHT22;1604;53.700;10.252;2024-02-21T06:02:36;8.60;96.00
3186;DHT22;1604;53.700;10.252;2024-02-21T06:05:38;8.60;96.00
3186;DHT22;1604;53.700;10.252;2024-02-21T06:08:40;8.60;95.90
3186;DHT22;1604;53.700;10.252;2024-02-21T06:11:42;8.50;95.90
3186;DHT22;1604;53.700;10.252;2024-02-21T06:14:48;8.50;95.90
3186;DHT22;1604;53.700;10.252;2024-02-21T06:17:50;8.60;95.80
3186;DHT22;1604;53.700;10.252;2024-02-21T06:20:55;8.60;95.90
3186;DHT22;1604;53.700;10.252;2024-02-21T06:23:56;8.50;95.90
3186;DHT22;1604;53.700;10.252;2024-02-21T06:26:58;8.50;95.90
3186;DHT22;1604;53.700;10.252;2024-02-21T06:30:02;8.60;95.90
3186;DHT22;1604;53.700;10.252;2024-02-21T06:33:04;8.60;95.90
3186;DHT22;1604;53.700;10.252;2024-02-21T06:36:08;8.50;95.90
3186;DHT22;1604;53.700;10.252;2024-02-21T06:39:10;8.50;95.90
3186;DHT22;1604;53.700;10.252;2024-02-21T06:42:12;8.50;95.90
3186;DHT22;1604;53.700;10.252;2024-02-21T06:45:16;8.50;95.90
3186;DHT22;1604;53.700;10.252;2024-02-21T06:48:18;8.50;95.90
3186;DHT22;1604;53.700;10.252;2024-02-21T06:51:20;8.50;95.90
3186;DHT22;1604;53.700;10.252;2024-02-21T06:54:22;8.50;95.90
3186;DHT22;1604;53.700;10.252;2024-02-21T06:57:24;8.50;95.90
3186;DHT22;1604;53.700;10.252;2024-02-21T07:00:27;8.50;95.90
3186;DHT22;1604;53.700;10.252;2024-02-21T07:03:29;8.50;95.90
3186;DHT22;1604;53.700;10.252;2024-02-21T07:06:31;8.50;95.80
3186;DHT22;1604;53.700;10.252;2024-02-21T07:09:33;8.50;95.80
3186;DHT22;1604;53.700;10.252;2024-02-21T07:12:35;8.60;95.80
3186;DHT22;1604;53.700;10.252;2024-02-21T07:15:40;8.60;95.80
3186;DHT22;1604;53.700;10.252;2024-02-21T07:18:42;8.60;95.80
3186;DHT22;1604;53.700;10.252;2024-02-21T07:21:44;8.60;95.80
3186;DHT22;1604;53.700;10.252;2024-02-21T07:24:46;8.60;95.80
3186;DHT22;1604;53.700;10.252;2024-02-21T07:27:48;8.60;95.80
3186;DHT22;1604;53.700;10.252;2024-02-21T07:30:51;8.60;95.80
3186;DHT22;1604;53.700;10.252;2024-02-21T07:33:53;8.70;95.80
3186;DHT22;1604;53.700;10.252;2024-02-21T07:36:55;8.70;95.80
3186;DHT22;1604;53.700;10.252;2024-02-21T07:39:57;8.70;95.80
3186;DHT22;1604;53.700;10.252;2024-02-21T07:42:59;8.70;95.90
3186;DHT22;1604;53.700;10.252;2024-02-21T07:46:03;8.60;95.90
3186;DHT22;1604;53.700;10.252;2024-02-21T07:49:05;8.70;95.90
3186;DHT22;1604;53.700;10.252;2024-02-21T07:52:07;8.70;95.90
3186;DHT22;1604;53.700;10.252;2024-02-21T07:55:09;8.70;95.90
3186;DHT22;1604;53.700;10.252;2024-02-21T07:58:11;8.60;95.80
3186;DHT22;1604;53.700;10.252;2024-02-21T08:01:19;8.70;95.80
3186;DHT22;1604;53.700;10.252;2024-02-21T08:04:22;8.70;95.90
3186;DHT22;1604;53.700;10.252;2024-02-21T08:07:24;8.70;95.90
3186;DHT22;1604;53.700;10.252;2024-02-21T08:10:26;8.70;95.90
3186;DHT22;1604;53.700;10.252;2024-02-21T08:13:27;8.70;95.90
3186;DHT22;1604;53.700;10.252;2024-02-21T08:16:31;8.80;95.90
3186;DHT22;1604;53.700;10.252;2024-02-21T08:19:33;8.80;96.00
3186;DHT22;1604;53.700;10.252;2024-02-21T08:22:37;8.80;96.10
3186;DHT22;1604;53.700;10.252;2024-02-21T08:25:39;8.80;96.20
3186;DHT22;1604;53.700;10.252;2024-02-21T08:28:41;8.80;96.40
3186;DHT22;1604;53.700;10.252;2024-02-21T08:31:44;8.80;96.70
3186;DHT22;1604;53.700;10.252;2024-02-21T08:34:46;8.80;96.70
3186;DHT22;1604;53.700;10.252;2024-02-21T08:37:48;8.80;96.70
3186;DHT22;1604;53.700;10.252;2024-02-21T08:40:50;8.80;96.90
3186;DHT22;1604;53.700;10.252;2024-02-21T08:43:53;8.90;96.80
3186;DHT22;1604;53.700;10.252;2024-02-21T08:46:56;8.90;96.80
3186;DHT22;1604;53.700;10.252;2024-02-21T08:49:58;9.00;96.90
3186;DHT22;1604;53.700;10.252;2024-02-21T08:53:00;9.00;97.20
3186;DHT22;1604;53.700;10.252;2024-02-21T08:56:03;9.10;97.40
3186;DHT22;1604;53.700;10.252;2024-02-21T08:59:05;9.20;97.70
3186;DHT22;1604;53.700;10.252;2024-02-21T09:02:08;9.20;98.60
3186;DHT22;1604;53.700;10.252;2024-02-21T09:05:10;9.20;99.30
3186;DHT22;1604;53.700;10.252;2024-02-21T09:08:12;9.20;99.30
3186;DHT22;1604;53.700;10.252;2024-02-21T09:11:14;9.20;99.20
3186;DHT22;1604;53.700;10.252;2024-02-21T09:14:16;9.30;99.00
3186;DHT22;1604;53.700;10.252;2024-02-21T09:17:20;9.40;99.90
3186;DHT22;1604;53.700;10.252;2024-02-21T09:20:22;9.40;99.90
3186;DHT22;1604;53.700;10.252;2024-02-21T09:23:24;9.40;99.90
3186;DHT22;1604;53.700;10.252;2024-02-21T09:26:26;9.40;99.90
3186;DHT22;1604;53.700;10.252;2024-02-21T09:29:28;9.40;99.90
3186;DHT22;1604;53.700;10.252;2024-02-21T09:32:31;9.50;99.90
3186;DHT22;1604;53.700;10.252;2024-02-21T09:35:34;9.60;99.90
3186;DHT22;1604;53.700;10.252;2024-02-21T09:38:36;9.60;99.90
3186;DHT22;1604;53.700;10.252;2024-02-21T09:41:41;9.60;99.90
3186;DHT22;1604;53.700;10.252;2024-02-21T09:44:47;9.60;99.90
3186;DHT22;1604;53.700;10.252;2024-02-21T09:48:03;9.60;99.90
3186;DHT22;1604;53.700;10.252;2024-02-21T09:51:09;9.60;99.90
3186;DHT22;1604;53.700;10.252;2024-02-21T09:54:12;9.70;99.90
3186;DHT22;1604;53.700;10.252;2024-02-21T09:57:14;9.70;99.90
3186;DHT22;1604;53.700;10.252;2024-02-21T10:00:17;9.70;99.90
3186;DHT22;1604;53.700;10.252;2024-02-21T10:03:23;9.70;99.90
3186;DHT22;1604;53.700;10.252;2024-02-21T10:06:25;9.70;99.90
3186;DHT22;1604;53.700;10.252;2024-02-21T10:09:28;9.70;99.90
3186;DHT22;1604;53.700;10.252;2024-02-21T10:12:30;9.60;99.90
3186;DHT22;1604;53.700;10.252;2024-02-21T10:15:32;9.60;99.90
3186;DHT22;1604;53.700;10.252;2024-02-21T10:18:35;9.60;99.90
3186;DHT22;1604;53.700;10.252;2024-02-21T10:21:37;9.50;99.90
3186;DHT22;1604;53.700;10.252;2024-02-21T10:24:39;9.50;99.80
3186;DHT22;1604;53.700;10.252;2024-02-21T10:27:42;9.50;99.50
3186;DHT22;1604;53.700;10.252;2024-02-21T10:30:50;9.50;99.30
3186;DHT22;1604;53.700;10.252;2024-02-21T10:33:58;9.40;98.90
3186;DHT22;1604;53.700;10.252;2024-02-21T10:37:01;9.40;98.60
3186;DHT22;1604;53.700;10.252;2024-02-21T10:40:05;9.30;98.30
3186;DHT22;1604;53.700;10.252;2024-02-21T10:43:11;9.30;98.10
3186;DHT22;1604;53.700;10.252;2024-02-21T10:46:14;9.30;98.00
3186;DHT22;1604;53.700;10.252;2024-02-21T10:49:23;9.30;98.00
3186;DHT22;1604;53.700;10.252;2024-02-21T10:52:32;9.30;97.80
3186;DHT22;1604;53.700;10.252;2024-02-21T10:55:45;9.30;97.70
3186;DHT22;1604;53.700;10.252;2024-02-21T10:58:52;9.40;97.50
3186;DHT22;1604;53.700;10.252;2024-02-21T11:01:56;9.40;97.40
3186;DHT22;1604;53.700;10.252;2024-02-21T11:04:59;9.40;97.40
3186;DHT22;1604;53.700;10.252;2024-02-21T11:08:02;9.40;97.40
3186;DHT22;1604;53.700;10.252;2024-02-21T11:11:05;9.40;97.30
3186;DHT22;1604;53.700;10.252;2024-02-21T11:14:08;9.30;97.20
3186;DHT22;1604;53.700;10.252;2024-02-21T11:17:16;9.40;97.10
3186;DHT22;1604;53.700;10.252;2024-02-21T11:20:21;9.40;96.90
3186;DHT22;1604;53.700;10.252;2024-02-21T11:24:02;9.40;96.70
3186;DHT22;1604;53.700;10.252;2024-02-21T11:27:12;9.40;96.70
3186;DHT22;1604;53.700;10.252;2024-02-21T11:30:14;9.50;97.00
3186;DHT22;1604;53.700;10.252;2024-02-21T11:33:18;9.40;97.20
3186;DHT22;1604;53.700;10.252;2024-02-21T11:36:24;9.40;97.20
3186;DHT22;1604;53.700;10.252;2024-02-21T11:39:27;9.40;97.30
3186;DHT22;1604;53.700;10.252;2024-02-21T11:42:30;9.40;97.40
3186;DHT22;1604;53.700;10.252;2024-02-21T11:45:32;9.40;97.40
3186;DHT22;1604;53.700;10.252;2024-02-21T11:48:40;9.40;97.50
3186;DHT22;1604;53.700;10.252;2024-02-21T11:51:43;9.40;97.40
3186;DHT22;1604;53.700;10.252;2024-02-21T11:54:47;9.40;97.30
3186;DHT22;1604;53.700;10.252;2024-02-21T11:57:50;9.40;97.30
3186;DHT22;1604;53.700;10.252;2024-02-21T12:00:52;9.40;97.40
3186;DHT22;1604;53.700;10.252;2024-02-21T12:03:57;9.30;97.40
3186;DHT22;1604;53.700;10.252;2024-02-21T12:06:59;9.40;97.60
3186;DHT22;1604;53.700;10.252;2024-02-21T12:10:07;9.30;97.70
3186;DHT22;1604;53.700;10.252;2024-02-21T12:13:13;9.30;97.80
3186;DHT22;1604;53.700;10.252;2024-02-21T12:16:16;9.30;97.90
3186;DHT22;1604;53.700;10.252;2024-02-21T12:19:18;9.30;98.00
3186;DHT22;1604;53.700;10.252;2024-02-21T12:22:25;9.30;97.90
3186;DHT22;1604;53.700;10.252;2024-02-21T12:25:29;9.20;97.90
3186;DHT22;1604;53.700;10.252;2024-02-21T12:28:31;9.20;97.90
3186;DHT22;1604;53.700;10.252;2024-02-21T12:31:33;9.20;97.90
3186;DHT22;1604;53.700;10.252;2024-02-21T12:34:35;9.10;97.70
3186;DHT22;1604;53.700;10.252;2024-02-21T12:37:37;9.20;98.30
3186;DHT22;1604;53.700;10.252;2024-02-21T12:40:41;9.10;98.60
3186;DHT22;1604;53.700;10.252;2024-02-21T12:43:43;9.10;98.50
3186;DHT22;1604;53.700;10.252;2024-02-21T12:46:45;9.00;98.40
3186;DHT22;1604;53.700;10.252;2024-02-21T12:49:46;9.00;98.30
3186;DHT22;1604;53.700;10.252;2024-02-21T12:52:52;9.00;98.40
3186;DHT22;1604;53.700;10.252;2024-02-21T12:55:55;9.00;98.30
3186;DHT22;1604;53.700;10.252;2024-02-21T12:58:57;9.00;98.20
3186;DHT22;1604;53.700;10.252;2024-02-21T13:01:59;9.00;98.10
3186;DHT22;1604;53.700;10.252;2024-02-21T13:05:01;9.00;98.40
3186;DHT22;1604;53.700;10.252;2024-02-21T13:08:04;9.00;98.70
3186;DHT22;1604;53.700;10.252;2024-02-21T13:11:07;8.90;98.60
3186;DHT22;1604;53.700;10.252;2024-02-21T13:14:09;8.90;98.50
3186;DHT22;1604;53.700;10.252;2024-02-21T13:17:11;8.80;98.30
3186;DHT22;1604;53.700;10.252;2024-02-21T13:20:15;8.80;98.10
3186;DHT22;1604;53.700;10.252;2024-02-21T13:23:17;8.80;98.00
3186;DHT22;1604;53.700;10.252;2024-02-21T13:26:20;8.80;98.00
3186;DHT22;1604;53.700;10.252;2024-02-21T13:29:22;8.80;97.80
3186;DHT22;1604;53.700;10.252;2024-02-21T13:32:24;8.80;97.80
3186;DHT22;1604;53.700;10.252;2024-02-21T13:35:26;8.80;97.70
3186;DHT22;1604;53.700;10.252;2024-02-21T13:38:28;8.80;97.70
3186;DHT22;1604;53.700;10.252;2024-02-21T13:41:32;8.80;97.70
3186;DHT22;1604;53.700;10.252;2024-02-21T13:44:34;8.80;97.70
3186;DHT22;1604;53.700;10.252;2024-02-21T13:47:37;8.80;97.80
3186;DHT22;1604;53.700;10.252;2024-02-21T13:50:39;8.80;97.80
3186;DHT22;1604;53.700;10.252;2024-02-21T13:53:44;8.90;97.90
3186;DHT22;1604;53.700;10.252;2024-02-21T13:56:47;8.90;98.10
3186;DHT22;1604;53.700;10.252;2024-02-21T13:59:49;9.00;98.30
3186;DHT22;1604;53.700;10.252;2024-02-21T14:02:51;9.00;98.50
3186;DHT22;1604;53.700;10.252;2024-02-21T14:05:55;9.00;98.60
3186;DHT22;1604;53.700;10.252;2024-02-21T14:08:57;9.00;98.70
3186;DHT22;1604;53.700;10.252;2024-02-21T14:12:00;9.00;98.60
3186;DHT22;1604;53.700;10.252;2024-02-21T14:15:02;9.10;99.00
3186;DHT22;1604;53.700;10.252;2024-02-21T14:18:04;9.10;99.30
3186;DHT22;1604;53.700;10.252;2024-02-21T14:21:09;9.10;99.40
3186;DHT22;1604;53.700;10.252;2024-02-21T14:24:12;9.20;99.70
3186;DHT22;1604;53.700;10.252;2024-02-21T14:27:15;9.20;99.90
3186;DHT22;1604;53.700;10.252;2024-02-21T14:30:17;9.20;99.90
3186;DHT22;1604;53.700;10.252;2024-02-21T14:33:19;9.20;99.90
3186;DHT22;1604;53.700;10.252;2024-02-21T14:36:21;9.20;99.90
3186;DHT22;1604;53.700;10.252;2024-02-21T14:39:24;9.20;99.90
3186;DHT22;1604;53.700;10.252;2024-02-21T14:42:27;9.20;99.90
3186;DHT22;1604;53.700;10.252;2024-02-21T14:45:29;9.20;99.90
3186;DHT22;1604;53.700;10.252;2024-02-21T14:48:32;9.20;99.90
3186;DHT22;1604;53.700;10.252;2024-02-21T14:51:34;9.30;99.90
3186;DHT22;1604;53.700;10.252;2024-02-21T14:54:37;9.30;99.90
3186;DHT22;1604;53.700;10.252;2024-02-21T14:57:41;9.30;99.90
3186;DHT22;1604;53.700;10.252;2024-02-21T15:00:43;9.20;99.90
3186;DHT22;1604;53.700;10.252;2024-02-21T15:03:45;9.30;99.90
3186;DHT22;1604;53.700;10.252;2024-02-21T15:06:47;9.30;99.90
3186;DHT22;1604;53.700;10.252;2024-02-21T15:09:50;9.40;99.90
3186;DHT22;1604;53.700;10.252;2024-02-21T15:12:53;9.40;99.90
3186;DHT22;1604;53.700;10.252;2024-02-21T15:15:56;9.30;99.90
3186;DHT22;1604;53.700;10.252;2024-02-21T15:18:58;9.30;99.90
3186;DHT22;1604;53.700;10.252;2024-02-21T15:22:00;9.30;99.90
3186;DHT22;1604;53.700;10.252;2024-02-21T15:25:04;9.30;99.90
3186;DHT22;1604;53.700;10.252;2024-02-21T15:28:07;9.30;99.90
3186;DHT22;1604;53.700;10.252;2024-02-21T15:31:09;9.30;99.90
3186;DHT22;1604;53.700;10.252;2024-02-21T15:34:22;9.30;99.90
3186;DHT22;1604;53.700;10.252;2024-02-21T15:37:24;9.30;99.90
3186;DHT22;1604;53.700;10.252;2024-02-21T15:40:26;9.30;99.90
3186;DHT22;1604;53.700;10.252;2024-02-21T15:43:30;9.30;99.90
3186;DHT22;1604;53.700;10.252;2024-02-21T15:46:32;9.30;99.90
3186;DHT22;1604;53.700;10.252;2024-02-21T15:49:36;9.20;99.90
3186;DHT22;1604;53.700;10.252;2024-02-21T15:52:38;9.20;99.90
3186;DHT22;1604;53.700;10.252;2024-02-21T15:55:40;9.10;99.90
3186;DHT22;1604;53.700;10.252;2024-02-21T15:58:44;9.10;99.90
3186;DHT22;1604;53.700;10.252;2024-02-21T16:01:45;9.10;99.90
3186;DHT22;1604;53.700;10.252;2024-02-21T16:04:48;9.10;99.90
3186;DHT22;1604;53.700;10.252;2024-02-21T16:07:50;9.10;99.90
3186;DHT22;1604;53.700;10.252;2024-02-21T16:10:52;9.10;99.90
3186;DHT22;1604;53.700;10.252;2024-02-21T16:13:55;9.00;99.90
3186;DHT22;1604;53.700;10.252;2024-02-21T16:16:58;9.00;99.90
3186;DHT22;1604;53.700;10.252;2024-02-21T16:19:59;9.00;99.90
3186;DHT22;1604;53.700;10.252;2024-02-21T16:23:02;8.90;99.90
3186;DHT22;1604;53.700;10.252;2024-02-21T16:26:05;8.90;99.90
3186;DHT22;1604;53.700;10.252;2024-02-21T16:29:08;8.80;99.90
3186;DHT22;1604;53.700;10.252;2024-02-21T16:32:10;8.80;99.90
3186;DHT22;1604;53.700;10.252;2024-02-21T16:35:12;8.70;99.90
3186;DHT22;1604;53.700;10.252;2024-02-21T16:38:14;8.70;99.90
3186;DHT22;1604;53.700;10.252;2024-02-21T16:41:16;8.60;99.90
3186;DHT22;1604;53.700;10.252;2024-02-21T16:44:20;8.60;99.90
3186;DHT22;1604;53.700;10.252;2024-02-21T16:47:22;8.60;99.90
3186;DHT22;1604;53.700;10.252;2024-02-21T16:50:25;8.60;99.90
3186;DHT22;1604;53.700;10.252;2024-02-21T16:53:27;8.60;99.90
3186;DHT22;1604;53.700;10.252;2024-02-21T16:56:29;8.60;99.90
3186;DHT22;1604;53.700;10.252;2024-02-21T16:59:32;8.60;99.90
3186;DHT22;1604;53.700;10.252;2024-02-21T17:02:34;8.60;99.90
3186;DHT22;1604;53.700;10.252;2024-02-21T17:05:36;8.50;99.90
3186;DHT22;1604;53.700;10.252;2024-02-21T17:08:39;8.60;99.90
3186;DHT22;1604;53.700;10.252;2024-02-21T17:11:41;8.60;99.90
3186;DHT22;1604;53.700;10.252;2024-02-21T17:14:44;8.60;99.90
3186;DHT22;1604;53.700;10.252;2024-02-21T17:17:47;8.60;99.90
3186;DHT22;1604;53.700;10.252;2024-02-21T17:20:49;8.60;99.90
3186;DHT22;1604;53.700;10.252;2024-02-21T17:23:51;8.60;99.90
3186;DHT22;1604;53.700;10.252;2024-02-21T17:26:52;8.60;99.90
3186;DHT22;1604;53.700;10.252;2024-02-21T17:29:56;8.60;99.90
3186;DHT22;1604;53.700;10.252;2024-02-21T17:32:58;8.60;99.90
3186;DHT22;1604;53.700;10.252;2024-02-21T17:36:00;8.50;99.90
3186;DHT22;1604;53.700;10.252;2024-02-21T17:39:02;8.60;99.90
3186;DHT22;1604;53.700;10.252;2024-02-21T17:42:05;8.60;99.90
3186;DHT22;1604;53.700;10.252;2024-02-21T17:45:09;8.60;99.90
3186;DHT22;1604;53.700;10.252;2024-02-21T17:48:11;8.60;99.90
3186;DHT22;1604;53.700;10.252;2024-02-21T17:51:13;8.60;99.90
3186;DHT22;1604;53.700;10.252;2024-02-21T17:54:16;8.60;99.90
3186;DHT22;1604;53.700;10.252;2024-02-21T17:57:18;8.60;99.90
3186;DHT22;1604;53.700;10.252;2024-02-21T18:00:21;8.60;99.90
3186;DHT22;1604;53.700;10.252;2024-02-21T18:03:25;8.60;99.90
3186;DHT22;1604;53.700;10.252;2024-02-21T18:06:29;8.60;99.90
3186;DHT22;1604;53.700;10.252;2024-02-21T18:09:31;8.60;99.90
3186;DHT22;1604;53.700;10.252;2024-02-21T18:12:34;8.50;99.90
3186;DHT22;1604;53.700;10.252;2024-02-21T18:15:38;8.40;99.90
3186;DHT22;1604;53.700;10.252;2024-02-21T18:18:40;8.40;99.90
3186;DHT22;1604;53.700;10.252;2024-02-21T18:21:42;8.30;99.90
3186;DHT22;1604;53.700;10.252;2024-02-21T18:24:44;8.30;99.90
3186;DHT22;1604;53.700;10.252;2024-02-21T18:27:46;8.30;99.90
3186;DHT22;1604;53.700;10.252;2024-02-21T18:30:49;8.30;99.90
3186;DHT22;1604;53.700;10.252;2024-02-21T18:33:52;8.30;99.90
3186;DHT22;1604;53.700;10.252;2024-02-21T18:36:54;8.30;99.90
3186;DHT22;1604;53.700;10.252;2024-02-21T18:39:56;8.20;99.90
3186;DHT22;1604;53.700;10.252;2024-02-21T18:42:58;8.30;99.90
3186;DHT22;1604;53.700;10.252;2024-02-21T18:46:01;8.20;99.90
3186;DHT22;1604;53.700;10.252;2024-02-21T18:49:03;8.20;99.90
3186;DHT22;1604;53.700;10.252;2024-02-21T18:52:06;8.20;99.90
3186;DHT22;1604;53.700;10.252;2024-02-21T18:55:11;8.20;99.90
3186;DHT22;1604;53.700;10.252;2024-02-21T18:58:13;8.20;99.90
3186;DHT22;1604;53.700;10.252;2024-02-21T19:01:17;8.20;99.90
3186;DHT22;1604;53.700;10.252;2024-02-21T19:04:21;8.20;99.90
3186;DHT22;1604;53.700;10.252;2024-02-21T19:07:24;8.20;99.90
3186;DHT22;1604;53.700;10.252;2024-02-21T19:10:26;8.20;99.90
3186;DHT22;1604;53.700;10.252;2024-02-21T19:13:29;8.30;99.90
3186;DHT22;1604;53.700;10.252;2024-02-21T19:16:32;8.20;99.90
3186;DHT22;1604;53.700;10.252;2024-02-21T19:19:34;8.20;99.90
3186;DHT22;1604;53.700;10.252;2024-02-21T19:22:37;8.20;99.90
3186;DHT22;1604;53.700;10.252;2024-02-21T19:25:40;8.20;99.90
3186;DHT22;1604;53.700;10.252;2024-02-21T19:28:43;8.20;99.90
3186;DHT22;1604;53.700;10.252;2024-02-21T19:31:47;8.20;99.90
3186;DHT22;1604;53.700;10.252;2024-02-21T19:34:50;8.20;99.90
3186;DHT22;1604;53.700;10.252;2024-02-21T19:37:55;8.20;99.90
3186;DHT22;1604;53.700;10.252;2024-02-21T19:41:04;8.20;99.90
3186;DHT22;1604;53.700;10.252;2024-02-21T19:44:06;8.30;99.90
3186;DHT22;1604;53.700;10.252;2024-02-21T19:47:10;8.30;99.90
3186;DHT22;1604;53.700;10.252;2024-02-21T19:50:13;8.30;99.90
3186;DHT22;1604;53.700;10.252;2024-02-21T19:53:21;8.30;99.90
3186;DHT22;1604;53.700;10.252;2024-02-21T19:56:23;8.30;99.90